createdAt,value
2018-04-27T00:00:49.273Z,57.70
2018-04-27T00:02:52.411Z,57.80
2018-04-27T00:04:56.296Z,57.80
2018-04-27T00:06:59.723Z,57.70
2018-04-27T00:09:04.685Z,57.70
2018-04-27T00:11:08.751Z,57.70
2018-04-27T00:13:12.083Z,57.70
2018-04-27T00:15:16.028Z,57.70
2018-04-27T00:17:19.210Z,57.70
2018-04-27T00:19:22.370Z,57.70
2018-04-27T00:21:25.527Z,57.70
2018-04-27T00:23:28.695Z,57.70
2018-04-27T00:25:31.834Z,57.60
2018-04-27T00:27:35.785Z,57.70
2018-04-27T00:29:39.710Z,57.70
2018-04-27T00:31:43.615Z,57.70
2018-04-27T00:33:46.752Z,57.80
2018-04-27T00:35:50.338Z,58.40
2018-04-27T00:37:53.468Z,57.90
2018-04-27T00:39:57.363Z,58.00
2018-04-27T00:42:00.519Z,58.00
2018-04-27T00:44:03.653Z,58.00
2018-04-27T00:46:06.833Z,58.00
2018-04-27T00:48:10.019Z,58.00
2018-04-27T00:50:13.918Z,57.90
2018-04-27T00:52:17.051Z,57.90
2018-04-27T00:54:21.238Z,58.00
2018-04-27T00:56:24.374Z,58.00
2018-04-27T00:58:27.502Z,58.00
2018-04-27T01:00:31.831Z,58.20
2018-04-27T01:02:36.573Z,58.20
2018-04-27T01:04:40.998Z,58.10
2018-04-27T01:06:44.956Z,58.00
2018-04-27T01:08:48.538Z,58.00
2018-04-27T01:10:52.406Z,58.00
2018-04-27T01:12:55.947Z,58.20
2018-04-27T01:14:59.664Z,58.00
2018-04-27T01:17:03.220Z,58.00
2018-04-27T01:19:07.055Z,57.90
2018-04-27T01:21:11.643Z,58.20
2018-04-27T01:23:15.555Z,58.10
2018-04-27T01:25:19.260Z,58.20
2018-04-27T01:27:23.185Z,58.20
2018-04-27T01:29:26.805Z,58.20
2018-04-27T01:31:30.348Z,58.10
2018-04-27T01:33:34.320Z,58.10
2018-04-27T01:35:38.623Z,58.10
2018-04-27T01:37:43.453Z,58.10
2018-04-27T01:39:46.982Z,58.00
2018-04-27T01:41:50.852Z,58.00
2018-04-27T01:43:55.622Z,58.00
2018-04-27T01:45:59.191Z,58.00
2018-04-27T01:48:03.480Z,58.00
2018-04-27T01:50:07.579Z,58.00
2018-04-27T01:52:11.163Z,57.90
2018-04-27T01:54:14.843Z,57.90
2018-04-27T01:56:18.743Z,57.90
2018-04-27T01:58:22.331Z,57.90
2018-04-27T02:00:25.527Z,58.50
2018-04-27T02:02:29.956Z,57.90
2018-04-27T02:04:35.212Z,58.00
2018-04-27T02:06:39.586Z,58.00
2018-04-27T02:08:43.000Z,58.10
2018-04-27T02:10:47.543Z,58.30
2018-04-27T02:12:52.077Z,58.30
2018-04-27T02:14:56.761Z,58.40
2018-04-27T02:17:01.594Z,58.50
2018-04-27T02:19:06.003Z,58.50
2018-04-27T02:21:09.271Z,58.40
2018-04-27T02:23:12.450Z,58.50
2018-04-27T02:25:15.588Z,58.50
2018-04-27T02:27:18.755Z,58.60
2018-04-27T02:29:21.922Z,58.50
2018-04-27T02:31:25.828Z,58.70
2018-04-27T02:33:29.006Z,58.70
2018-04-27T02:35:32.166Z,58.70
2018-04-27T02:37:35.303Z,58.70
2018-04-27T02:39:38.815Z,58.60
2018-04-27T02:41:42.714Z,58.60
2018-04-27T02:43:45.847Z,58.70
2018-04-27T02:45:49.018Z,58.70
2018-04-27T02:47:52.153Z,58.90
2018-04-27T02:49:56.114Z,58.90
2018-04-27T02:51:59.246Z,58.80
2018-04-27T02:54:02.374Z,58.80
2018-04-27T02:56:05.534Z,58.90
2018-04-27T02:58:08.662Z,58.90
2018-04-27T03:00:11.801Z,58.80
2018-04-27T03:02:14.975Z,58.90
2018-04-27T03:04:18.108Z,59.30
2018-04-27T03:06:22.077Z,59.20
2018-04-27T03:08:25.238Z,59.10
2018-04-27T03:10:28.377Z,59.20
2018-04-27T03:12:32.299Z,59.30
2018-04-27T03:14:36.230Z,59.40
2018-04-27T03:16:40.455Z,59.50
2018-04-27T03:18:44.373Z,59.60
2018-04-27T03:20:48.277Z,59.60
2018-04-27T03:22:51.461Z,59.60
2018-04-27T03:24:54.588Z,59.60
2018-04-27T03:26:57.751Z,59.60
2018-04-27T03:29:00.920Z,59.60
2018-04-27T03:31:04.055Z,59.60
2018-04-27T03:33:07.215Z,59.70
2018-04-27T03:35:10.370Z,59.70
2018-04-27T03:37:13.499Z,59.70
2018-04-27T03:39:16.663Z,59.90
2018-04-27T03:41:21.622Z,60.10
2018-04-27T03:43:25.657Z,60.00
2018-04-27T03:45:28.821Z,60.00
2018-04-27T03:47:31.947Z,59.90
2018-04-27T03:49:35.895Z,60.00
2018-04-27T03:51:39.825Z,60.00
2018-04-27T03:53:42.991Z,60.00
2018-04-27T03:55:46.165Z,59.90
2018-04-27T03:57:50.218Z,59.80
2018-04-27T04:00:12.522Z,59.70
2018-04-27T04:02:35.061Z,59.90
2018-04-27T04:04:57.499Z,59.90
2018-04-27T04:07:01.782Z,59.80
2018-04-27T04:09:06.301Z,59.80
2018-04-27T04:11:10.350Z,59.80
2018-04-27T04:13:14.591Z,59.90
2018-04-27T04:15:18.871Z,60.00
2018-04-27T04:17:22.516Z,60.20
2018-04-27T04:19:27.636Z,60.10
2018-04-27T04:21:30.907Z,60.00
2018-04-27T04:23:34.059Z,60.00
2018-04-27T04:25:38.021Z,60.10
2018-04-27T04:27:41.152Z,60.10
2018-04-27T04:29:44.319Z,60.10
2018-04-27T04:33:48.227Z,60.10
2018-04-27T04:35:51.363Z,60.20
2018-04-27T04:37:54.558Z,60.20
2018-04-27T04:39:57.690Z,60.20
2018-04-27T04:42:01.621Z,60.30
2018-04-27T04:44:04.803Z,60.10
2018-04-27T04:46:08.698Z,61.20
2018-04-27T04:48:11.831Z,60.40
2018-04-27T04:50:14.987Z,61.30
2018-04-27T04:52:18.136Z,60.60
2018-04-27T04:54:21.307Z,60.70
2018-04-27T04:56:24.502Z,61.90
2018-04-27T04:58:27.675Z,61.20
2018-04-27T05:00:31.606Z,62.30
2018-04-27T05:02:35.504Z,61.60
2018-04-27T05:04:38.638Z,61.60
2018-04-27T05:06:42.574Z,61.80
2018-04-27T05:08:45.768Z,61.80
2018-04-27T05:10:49.731Z,62.00
2018-04-27T05:12:53.594Z,62.00
2018-04-27T05:14:56.759Z,61.90
2018-04-27T05:16:59.895Z,61.90
2018-04-27T05:19:05.479Z,61.90
2018-04-27T05:21:08.661Z,62.00
2018-04-27T05:23:11.799Z,62.10
2018-04-27T05:25:14.947Z,62.20
2018-04-27T05:27:18.115Z,62.50
2018-04-27T05:29:21.275Z,62.50
2018-04-27T05:31:27.462Z,62.70
2018-04-27T05:33:30.631Z,63.00
2018-04-27T05:35:34.558Z,63.40
2018-04-27T05:37:37.730Z,63.50
2018-04-27T05:39:40.898Z,63.70
2018-04-27T05:41:44.030Z,63.90
2018-04-27T05:43:47.204Z,64.00
2018-04-27T05:45:50.401Z,64.30
2018-04-27T05:47:54.274Z,65.00
2018-04-27T05:49:57.434Z,64.70
2018-04-27T05:52:00.579Z,64.80
2018-04-27T05:54:03.727Z,64.80
2018-04-27T05:56:07.691Z,65.30
2018-04-27T05:58:10.817Z,65.30
2018-04-27T06:00:13.982Z,65.50
2018-04-27T06:02:17.930Z,65.90
2018-04-27T06:04:21.107Z,65.90
2018-04-27T06:06:25.008Z,66.20
2018-04-27T06:08:28.166Z,66.20
2018-04-27T06:10:31.342Z,66.10
2018-04-27T06:12:35.280Z,66.30
2018-04-27T06:14:38.414Z,66.30
2018-04-27T06:16:41.578Z,66.50
2018-04-27T06:18:45.521Z,67.70
2018-04-27T06:20:49.799Z,67.10
2018-04-27T06:22:52.990Z,67.00
2018-04-27T06:24:56.371Z,67.10
2018-04-27T06:27:00.276Z,67.10
2018-04-27T06:29:03.433Z,67.20
2018-04-27T06:31:06.919Z,67.20
2018-04-27T06:33:11.108Z,67.50
2018-04-27T06:35:14.258Z,67.50
2018-04-27T06:37:18.193Z,67.70
2018-04-27T06:39:21.402Z,67.70
2018-04-27T06:41:24.506Z,67.70
2018-04-27T06:43:27.667Z,67.50
2018-04-27T06:45:30.834Z,67.50
2018-04-27T06:47:33.976Z,67.20
2018-04-27T06:49:37.134Z,67.00
2018-04-27T06:51:41.074Z,66.00
2018-04-27T06:53:44.231Z,66.00
2018-04-27T06:55:47.399Z,66.10
2018-04-27T06:57:50.574Z,66.20
2018-04-27T06:59:54.485Z,66.30
2018-04-27T07:01:58.398Z,66.40
2018-04-27T07:04:01.570Z,66.40
2018-04-27T07:06:04.714Z,66.50
2018-04-27T07:08:07.858Z,66.20
2018-04-27T07:10:11.276Z,65.90
2018-04-27T07:12:14.420Z,65.60
2018-04-27T07:14:17.583Z,65.60
2018-04-27T07:16:21.516Z,66.00
2018-04-27T07:18:24.664Z,66.00
2018-04-27T07:20:27.831Z,65.30
2018-04-27T07:22:31.010Z,65.00
2018-04-27T07:24:34.178Z,64.10
2018-04-27T07:26:37.322Z,63.80
2018-04-27T07:28:40.487Z,63.70
2018-04-27T07:30:43.767Z,63.40
2018-04-27T07:32:46.913Z,63.30
2018-04-27T07:34:50.053Z,63.10
2018-04-27T07:36:54.267Z,62.80
2018-04-27T07:38:58.578Z,62.10
2018-04-27T07:41:02.862Z,61.70
2018-04-27T07:43:06.991Z,61.20
2018-04-27T07:45:12.634Z,60.60
2018-04-27T07:47:18.440Z,60.30
2018-04-27T07:49:23.272Z,59.20
2018-04-27T07:51:28.101Z,59.10
2018-04-27T07:53:31.438Z,58.90
2018-04-27T07:55:35.342Z,59.50
2018-04-27T07:57:38.483Z,59.40
2018-04-27T07:59:41.666Z,59.40
2018-04-27T08:01:45.583Z,58.60
2018-04-27T08:03:48.726Z,58.40
2018-04-27T08:05:52.103Z,57.80
2018-04-27T08:07:55.280Z,56.60
2018-04-27T08:09:58.450Z,56.80
2018-04-27T08:12:01.627Z,56.60
2018-04-27T08:14:04.763Z,56.00
2018-04-27T08:16:08.662Z,55.90
2018-04-27T08:18:11.835Z,55.80
2018-04-27T08:20:18.433Z,55.40
2018-04-27T08:22:21.631Z,55.00
2018-04-27T08:24:24.816Z,54.90
2018-04-27T08:26:29.424Z,54.40
2018-04-27T08:28:33.492Z,53.70
2018-04-27T08:30:36.689Z,53.30
2018-04-27T08:32:39.838Z,53.50
2018-04-27T08:34:42.984Z,53.30
2018-04-27T08:36:46.926Z,51.80
2018-04-27T08:38:50.103Z,51.70
2018-04-27T08:40:53.255Z,51.90
2018-04-27T08:42:56.446Z,51.80
2018-04-27T08:44:59.645Z,50.90
2018-04-27T08:47:03.605Z,50.70
2018-04-27T08:49:06.878Z,50.70
2018-04-27T08:51:10.872Z,50.10
2018-04-27T08:53:15.638Z,50.00
2018-04-27T08:55:20.065Z,49.80
2018-04-27T08:57:23.348Z,49.80
2018-04-27T08:59:26.530Z,49.30
2018-04-27T09:01:29.816Z,48.80
2018-04-27T09:03:33.758Z,48.10
2018-04-27T09:05:37.272Z,48.00
2018-04-27T09:07:40.443Z,47.50
2018-04-27T09:09:43.614Z,47.00
2018-04-27T09:11:46.781Z,46.60
2018-04-27T09:13:50.723Z,46.20
2018-04-27T09:15:54.019Z,46.70
2018-04-27T09:17:57.958Z,45.80
2018-04-27T09:20:01.122Z,45.70
2018-04-27T09:22:04.307Z,45.50
2018-04-27T09:24:07.488Z,45.70
2018-04-27T09:26:10.676Z,45.80
2018-04-27T09:28:14.612Z,45.60
2018-04-27T09:30:18.554Z,45.30
2018-04-27T09:32:21.811Z,45.00
2018-04-27T09:34:24.923Z,44.40
2018-04-27T09:36:28.107Z,44.30
2018-04-27T09:38:31.283Z,44.40
2018-04-27T09:40:34.451Z,43.10
2018-04-27T09:42:38.399Z,43.40
2018-04-27T09:44:42.337Z,42.70
2018-04-27T09:46:45.851Z,42.50
2018-04-27T09:48:49.022Z,42.60
2018-04-27T09:50:52.204Z,42.70
2018-04-27T09:52:56.767Z,41.80
2018-04-27T09:54:59.938Z,41.90
2018-04-27T09:57:03.280Z,41.10
2018-04-27T09:59:06.450Z,41.00
2018-04-27T10:01:09.662Z,40.80
2018-04-27T10:03:13.760Z,41.30
2018-04-27T10:05:17.030Z,41.00
2018-04-27T10:07:20.228Z,39.80
2018-04-27T10:09:23.399Z,40.40
2018-04-27T10:11:26.570Z,40.30
2018-04-27T10:13:29.746Z,39.70
2018-04-27T10:15:32.951Z,39.70
2018-04-27T10:17:36.123Z,40.00
2018-04-27T10:19:42.916Z,39.00
2018-04-27T10:21:46.860Z,38.40
2018-04-27T10:23:50.046Z,38.30
2018-04-27T10:25:53.981Z,38.70
2018-04-27T10:27:57.153Z,38.50
2018-04-27T10:30:00.339Z,38.30
2018-04-27T10:32:03.547Z,38.20
2018-04-27T10:34:06.732Z,37.00
2018-04-27T10:36:09.898Z,37.70
2018-04-27T10:38:13.071Z,37.70
2018-04-27T10:40:16.251Z,38.20
2018-04-27T10:42:19.426Z,37.50
2018-04-27T10:44:22.604Z,37.70
2018-04-27T10:46:25.783Z,36.40
2018-04-27T10:48:28.971Z,36.60
2018-04-27T10:50:32.415Z,35.90
2018-04-27T10:52:35.578Z,35.90
2018-04-27T10:54:39.512Z,36.30
2018-04-27T10:56:43.463Z,35.90
2018-04-27T10:58:46.641Z,35.90
2018-04-27T11:00:50.582Z,35.20
2018-04-27T11:02:53.770Z,35.10
2018-04-27T11:04:58.018Z,35.90
2018-04-27T11:07:01.950Z,36.00
2018-04-27T11:09:05.137Z,36.00
2018-04-27T11:11:09.080Z,35.40
2018-04-27T11:13:12.253Z,35.30
2018-04-27T11:15:15.427Z,35.20
2018-04-27T11:17:18.612Z,35.20
2018-04-27T11:19:21.829Z,35.20
2018-04-27T11:21:25.015Z,34.70
2018-04-27T11:23:29.012Z,35.00
2018-04-27T11:25:36.223Z,34.90
2018-04-27T11:27:39.391Z,35.00
2018-04-27T11:29:42.558Z,35.00
2018-04-27T11:31:46.500Z,35.50
2018-04-27T11:33:49.677Z,35.30
2018-04-27T11:35:52.861Z,35.10
2018-04-27T11:37:56.040Z,34.30
2018-04-27T11:39:59.228Z,34.80
2018-04-27T11:42:02.430Z,34.80
2018-04-27T11:44:06.392Z,34.80
2018-04-27T11:46:09.577Z,34.70
2018-04-27T11:48:12.820Z,34.50
2018-04-27T11:50:15.995Z,34.90
2018-04-27T11:52:19.171Z,34.70
2018-04-27T11:54:23.119Z,35.00
2018-04-27T11:56:27.712Z,35.00
2018-04-27T11:58:30.890Z,34.90
2018-04-27T12:00:34.079Z,34.10
2018-04-27T12:02:38.040Z,34.00
2018-04-27T12:04:41.235Z,33.90
2018-04-27T12:06:44.403Z,33.50
2018-04-27T12:08:47.621Z,35.00
2018-04-27T12:10:51.558Z,33.90
2018-04-27T12:12:55.507Z,34.00
2018-04-27T12:14:58.667Z,33.80
2018-04-27T12:17:01.849Z,33.30
2018-04-27T12:19:05.023Z,33.60
2018-04-27T12:21:08.212Z,33.10
2018-04-27T12:23:12.156Z,33.10
2018-04-27T12:25:15.331Z,33.00
2018-04-27T12:27:18.859Z,33.20
2018-04-27T12:29:22.797Z,33.00
2018-04-27T12:31:26.113Z,32.90
2018-04-27T12:33:29.182Z,32.90
2018-04-27T12:35:32.389Z,32.40
2018-04-27T12:37:35.863Z,32.40
2018-04-27T12:39:39.047Z,32.50
2018-04-27T12:41:42.232Z,33.00
2018-04-27T12:43:46.782Z,32.50
2018-04-27T12:45:50.731Z,31.80
2018-04-27T12:47:54.740Z,31.60
2018-04-27T12:49:58.826Z,32.10
2018-04-27T12:52:01.999Z,31.90
2018-04-27T12:54:05.174Z,32.60
2018-04-27T12:56:09.119Z,32.40
2018-04-27T12:58:12.303Z,32.30
2018-04-27T13:00:15.476Z,31.50
2018-04-27T13:02:18.651Z,31.30
2018-04-27T13:04:21.827Z,31.60
2018-04-27T13:06:25.303Z,32.30
2018-04-27T13:08:28.476Z,32.20
2018-04-27T13:10:31.734Z,32.00
2018-04-27T13:12:35.202Z,32.70
2018-04-27T13:14:38.371Z,31.50
2018-04-27T13:16:41.722Z,31.90
2018-04-27T13:18:44.924Z,31.80
2018-04-27T13:20:48.867Z,31.70
2018-04-27T13:22:52.057Z,31.60
2018-04-27T13:24:56.002Z,31.20
2018-04-27T13:26:59.193Z,31.10
2018-04-27T13:29:03.129Z,30.70
2018-04-27T13:31:06.303Z,30.60
2018-04-27T13:33:09.476Z,30.30
2018-04-27T13:35:12.651Z,30.50
2018-04-27T13:37:15.841Z,31.00
2018-04-27T13:39:19.773Z,30.30
2018-04-27T13:41:24.214Z,29.80
2018-04-27T13:43:28.187Z,29.80
2018-04-27T13:45:31.371Z,29.70
2018-04-27T13:47:34.562Z,29.70
2018-04-27T13:49:37.763Z,29.50
2018-04-27T13:51:41.747Z,29.70
2018-04-27T13:53:44.918Z,29.60
2018-04-27T13:55:48.097Z,29.30
2018-04-27T13:57:52.044Z,29.10
2018-04-27T13:59:55.222Z,29.00
2018-04-27T14:01:58.396Z,28.90
2018-04-27T14:04:01.559Z,29.00
2018-04-27T14:06:05.491Z,29.60
2018-04-27T14:08:08.670Z,29.50
2018-04-27T14:10:12.107Z,29.30
2018-04-27T14:12:16.042Z,29.00
2018-04-27T14:14:19.210Z,28.90
2018-04-27T14:16:22.469Z,29.40
2018-04-27T14:18:26.691Z,29.30
2018-04-27T14:20:29.859Z,29.40
2018-04-27T14:22:33.306Z,28.90
2018-04-27T14:24:37.283Z,29.40
2018-04-27T14:26:40.747Z,29.30
2018-04-27T14:28:44.682Z,29.10
2018-04-27T14:30:47.845Z,29.00
2018-04-27T14:32:51.019Z,29.70
2018-04-27T14:34:54.219Z,29.60
2018-04-27T14:36:57.395Z,29.40
2018-04-27T14:39:01.331Z,29.50
2018-04-27T14:41:05.360Z,29.70
2018-04-27T14:43:08.478Z,29.70
2018-04-27T14:45:11.691Z,29.50
2018-04-27T14:47:14.869Z,29.40
2018-04-27T14:49:18.041Z,29.10
2018-04-27T14:51:21.215Z,29.30
2018-04-27T14:53:24.377Z,29.40
2018-04-27T14:55:28.890Z,29.10
2018-04-27T14:57:32.063Z,29.20
2018-04-27T14:59:35.302Z,29.20
2018-04-27T15:01:39.188Z,29.20
2018-04-27T15:03:43.126Z,29.20
2018-04-27T15:05:46.307Z,29.20
2018-04-27T15:07:49.519Z,28.90
2018-04-27T15:09:52.752Z,28.20
2018-04-27T15:11:55.935Z,28.50
2018-04-27T15:13:59.107Z,28.60
2018-04-27T15:16:02.288Z,28.20
2018-04-27T15:18:05.472Z,27.70
2018-04-27T15:20:09.571Z,27.20
2018-04-27T15:22:12.918Z,27.10
2018-04-27T15:24:16.868Z,26.40
2018-04-27T15:26:20.044Z,26.30
2018-04-27T15:28:24.003Z,26.60
2018-04-27T15:30:27.170Z,26.60
2018-04-27T15:32:31.114Z,26.80
2018-04-27T15:34:34.554Z,26.70
2018-04-27T15:36:37.763Z,27.00
2018-04-27T15:38:40.964Z,27.50
2018-04-27T15:40:44.149Z,27.30
2018-04-27T15:42:48.102Z,26.80
2018-04-27T15:44:51.280Z,26.80
2018-04-27T15:46:55.231Z,26.80
2018-04-27T15:48:58.407Z,27.20
2018-04-27T15:51:03.173Z,26.90
2018-04-27T15:53:06.342Z,26.90
2018-04-27T15:55:10.213Z,26.90
2018-04-27T15:59:22.745Z,27.30
2018-04-27T16:01:26.905Z,27.50
2018-04-27T16:03:30.079Z,27.40
2018-04-27T16:05:34.118Z,27.80
2018-04-27T16:07:38.073Z,27.70
2018-04-27T16:09:41.456Z,27.70
2018-04-27T16:11:44.790Z,28.30
2018-04-27T16:13:59.479Z,28.20
2018-04-27T16:16:02.687Z,28.30
2018-04-27T16:18:06.167Z,28.00
2018-04-27T16:20:10.788Z,28.40
2018-04-27T16:22:14.027Z,28.30
2018-04-27T16:24:17.578Z,28.20
2018-04-27T16:26:26.496Z,28.40
2018-04-27T16:28:29.687Z,28.10
2018-04-27T16:30:33.618Z,28.30
2018-04-27T16:32:36.790Z,28.20
2018-04-27T16:34:40.754Z,28.40
2018-04-27T16:36:43.929Z,28.30
2018-04-27T16:38:47.873Z,28.20
2018-04-27T16:40:51.803Z,28.40
2018-04-27T16:42:55.749Z,28.40
2018-04-27T16:44:58.918Z,28.40
2018-04-27T16:47:02.859Z,28.70
2018-04-27T16:49:06.804Z,28.60
2018-04-27T16:51:09.967Z,28.60
2018-04-27T16:53:13.903Z,29.10
2018-04-27T16:55:17.074Z,29.10
2018-04-27T16:57:20.234Z,29.30
2018-04-27T16:59:24.467Z,28.50
2018-04-27T17:01:28.402Z,28.90
2018-04-27T17:03:32.336Z,29.40
2018-04-27T17:05:35.530Z,29.40
2018-04-27T17:07:39.471Z,30.00
2018-04-27T17:09:42.644Z,30.00
2018-04-27T17:11:45.806Z,30.60
2018-04-27T17:13:49.015Z,30.80
2018-04-27T17:15:52.190Z,31.40
2018-04-27T17:17:56.969Z,31.90
2018-04-27T17:20:00.957Z,31.90
2018-04-27T17:22:04.473Z,32.50
2018-04-27T17:24:08.705Z,33.80
2018-04-27T17:26:11.915Z,33.90
2018-04-27T17:28:15.864Z,34.20
2018-04-27T17:30:19.050Z,34.20
2018-04-27T17:32:23.025Z,34.90
2018-04-27T17:34:26.203Z,34.90
2018-04-27T17:36:29.380Z,35.10
2018-04-27T17:38:33.319Z,36.90
2018-04-27T17:40:37.261Z,36.50
2018-04-27T17:42:40.440Z,36.50
2018-04-27T17:44:44.480Z,37.30
2018-04-27T17:46:48.449Z,37.60
2018-04-27T17:48:51.646Z,37.60
2018-04-27T17:50:54.823Z,37.60
2018-04-27T17:52:58.770Z,38.10
2018-04-27T17:55:01.949Z,38.20
2018-04-27T17:57:05.883Z,38.80
2018-04-27T17:59:10.219Z,39.00
2018-04-27T18:01:14.152Z,39.30
2018-04-27T18:03:18.087Z,39.30
2018-04-27T18:05:21.259Z,39.30
2018-04-27T18:07:26.018Z,39.50
2018-04-27T18:09:29.184Z,40.20
2018-04-27T18:11:32.383Z,40.30
2018-04-27T18:13:35.602Z,40.70
2018-04-27T18:15:38.770Z,40.70
2018-04-27T18:17:41.955Z,41.10
2018-04-27T18:19:45.930Z,41.30
2018-04-27T18:21:49.125Z,41.30
2018-04-27T18:23:52.412Z,41.60
2018-04-27T18:25:55.623Z,41.80
2018-04-27T18:27:59.840Z,42.10
2018-04-27T18:30:03.009Z,42.20
2018-04-27T18:32:06.183Z,42.50
2018-04-27T18:34:09.347Z,42.70
2018-04-27T18:36:12.526Z,42.90
2018-04-27T18:38:15.885Z,43.10
2018-04-27T18:40:19.072Z,43.00
2018-04-27T18:42:22.320Z,43.10
2018-04-27T18:44:25.449Z,43.20
2018-04-27T18:46:28.630Z,43.30
2018-04-27T18:48:34.423Z,43.30
2018-04-27T18:50:37.610Z,43.30
2018-04-27T18:52:41.549Z,43.40
2018-04-27T18:54:44.797Z,43.40
2018-04-27T18:56:48.684Z,43.90
2018-04-27T18:58:53.823Z,43.90
2018-04-27T19:00:59.205Z,44.20
2018-04-27T19:03:02.561Z,44.30
2018-04-27T19:05:05.821Z,44.40
2018-04-27T19:07:08.996Z,44.40
2018-04-27T19:09:12.343Z,44.60
2018-04-27T19:11:15.511Z,44.80
2018-04-27T19:13:19.491Z,44.90
2018-04-27T19:15:22.722Z,44.90
2018-04-27T19:17:25.955Z,45.10
2018-04-27T19:19:29.123Z,45.30
2018-04-27T19:21:32.339Z,45.20
2018-04-27T19:23:40.387Z,45.40
2018-04-27T19:25:55.084Z,45.80
2018-04-27T19:27:59.025Z,45.60
2018-04-27T19:30:02.205Z,45.60
2018-04-27T19:32:06.168Z,46.10
2018-04-27T19:34:09.373Z,46.10
2018-04-27T19:36:12.660Z,46.30
2018-04-27T19:38:16.886Z,46.50
2018-04-27T19:40:20.834Z,46.50
2018-04-27T19:42:24.015Z,46.50
2018-04-27T19:44:27.189Z,46.50
2018-04-27T19:46:30.379Z,46.60
2018-04-27T19:48:33.876Z,46.60
2018-04-27T19:50:38.809Z,46.70
2018-04-27T19:52:42.771Z,47.00
2018-04-27T19:54:46.178Z,47.00
2018-04-27T19:56:49.355Z,47.00
2018-04-27T19:58:53.365Z,46.90
2018-04-27T20:00:56.734Z,46.90
2018-04-27T20:03:00.076Z,46.90
2018-04-27T20:05:03.282Z,47.00
2018-04-27T20:07:06.737Z,47.20
2018-04-27T20:09:09.996Z,47.20
2018-04-27T20:11:13.417Z,47.20
2018-04-27T20:13:17.452Z,47.30
2018-04-27T20:17:49.951Z,47.80
2018-04-27T20:19:53.119Z,47.50
2018-04-27T20:21:56.376Z,47.50
2018-04-27T20:24:06.807Z,47.70
2018-04-27T20:26:09.983Z,47.80
2018-04-27T20:28:13.433Z,47.90
2018-04-27T20:30:17.406Z,48.60
2018-04-27T20:32:20.576Z,48.40
2018-04-27T20:34:23.749Z,48.50
2018-04-27T20:36:27.688Z,48.60
2018-04-27T20:38:33.441Z,48.70
2018-04-27T20:40:37.378Z,48.70
2018-04-27T20:42:41.359Z,48.80
2018-04-27T20:44:44.546Z,48.70
2018-04-27T20:46:47.723Z,48.80
2018-04-27T20:48:52.436Z,48.90
2018-04-27T20:50:58.024Z,49.00
2018-04-27T20:53:02.906Z,49.20
2018-04-27T20:55:18.006Z,49.20
2018-04-27T20:57:21.150Z,49.30
2018-04-27T20:59:24.323Z,49.40
2018-04-27T21:01:28.517Z,49.50
2018-04-27T21:03:31.849Z,49.70
2018-04-27T21:05:35.027Z,49.60
2018-04-27T21:07:38.933Z,49.80
2018-04-27T21:09:42.078Z,49.80
2018-04-27T21:11:48.438Z,49.80
2018-04-27T21:13:53.152Z,50.00
2018-04-27T21:15:56.381Z,50.10
2018-04-27T21:18:00.332Z,50.20
2018-04-27T21:20:03.504Z,50.20
2018-04-27T21:22:07.421Z,50.00
2018-04-27T21:24:10.604Z,50.20
2018-04-27T21:26:21.641Z,50.30
2018-04-27T21:28:34.402Z,50.40
2018-04-27T21:30:37.742Z,50.40
2018-04-27T21:32:42.399Z,50.40
2018-04-27T21:34:47.083Z,50.70
2018-04-27T21:36:51.193Z,50.80
2018-04-27T21:39:08.753Z,50.90
2018-04-27T21:44:26.154Z,51.30
2018-04-27T21:46:29.295Z,50.90
2018-04-27T21:48:32.475Z,51.00
2018-04-27T21:50:36.381Z,51.40
2018-04-27T21:52:47.239Z,51.40
2018-04-27T21:54:50.728Z,51.60
2018-04-27T21:57:08.023Z,51.60
2018-04-27T22:01:48.032Z,51.80
2018-04-27T22:03:58.750Z,51.70
2018-04-27T22:08:43.642Z,52.70
2018-04-27T22:10:46.814Z,52.30
2018-04-27T22:12:51.562Z,52.60
2018-04-27T22:14:54.708Z,52.80
2018-04-27T22:19:37.454Z,53.60
2018-04-27T22:21:43.423Z,53.00
2018-04-27T22:23:46.899Z,53.20
2018-04-27T22:25:50.044Z,53.20
2018-04-27T22:28:05.740Z,53.30
2018-04-27T22:30:27.438Z,53.40
2018-04-27T22:32:41.002Z,53.40
2018-04-27T22:34:47.670Z,53.30
2018-04-27T22:36:50.835Z,53.30
2018-04-27T22:39:24.743Z,53.50
2018-04-27T22:41:27.888Z,53.60
2018-04-27T22:43:33.756Z,53.50
2018-04-27T22:45:39.542Z,53.60
2018-04-27T22:47:51.543Z,53.60
2018-04-27T22:49:54.715Z,53.80
2018-04-27T22:51:57.887Z,53.80
2018-04-27T22:54:04.586Z,54.00
2018-04-27T22:56:07.732Z,53.90
2018-04-27T22:58:13.216Z,54.20
2018-04-27T23:00:16.364Z,54.20
2018-04-27T23:02:21.383Z,54.20
2018-04-27T23:04:27.440Z,54.20
2018-04-27T23:06:30.587Z,54.20
2018-04-27T23:08:33.771Z,54.20
2018-04-27T23:11:12.590Z,54.10
2018-04-27T23:13:31.002Z,54.10
2018-04-27T23:15:38.814Z,54.10
2018-04-27T23:17:42.002Z,54.10
2018-04-27T23:19:55.388Z,54.40
2018-04-27T23:22:03.085Z,54.50
2018-04-27T23:24:07.089Z,54.60
2018-04-27T23:26:10.228Z,54.60
2018-04-27T23:28:14.163Z,54.80
2018-04-27T23:30:23.241Z,54.80
2018-04-27T23:32:27.175Z,54.90
2018-04-27T23:34:30.358Z,55.10
2018-04-27T23:36:33.512Z,55.10
2018-04-27T23:38:36.655Z,55.20
2018-04-27T23:40:40.594Z,55.40
2018-04-27T23:42:45.306Z,55.30
2018-04-27T23:44:49.213Z,55.50
2018-04-27T23:46:52.404Z,55.30
2018-04-27T23:48:56.281Z,55.30
2018-04-27T23:51:00.876Z,55.30
2018-04-27T23:53:04.911Z,55.30
2018-04-27T23:55:09.558Z,55.50
2018-04-27T23:57:21.363Z,55.50
2018-04-27T23:59:26.051Z,55.50
